createdAt,value
2023-03-12T00:01:00.864Z,99435.34
2023-03-12T00:01:35.046Z,99449.75
2023-03-12T00:02:21.832Z,99432.16
2023-03-12T00:02:56.006Z,99404.72
2023-03-12T00:03:35.852Z,99443.69
2023-03-12T00:04:15.949Z,99441.72
2023-03-12T00:04:56.818Z,99434.38
2023-03-12T00:05:37.969Z,99446.34
2023-03-12T00:06:18.805Z,99456.06
2023-03-12T00:06:58.925Z,99432.19
2023-03-12T00:07:39.831Z,99452.25
2023-03-12T00:08:33.801Z,99459.66
2023-03-12T00:09:15.799Z,99437.44
2023-03-12T00:09:55.950Z,99455.75
2023-03-12T00:10:36.814Z,99434.47
2023-03-12T00:11:23.940Z,99437.03
2023-03-12T00:12:04.777Z,99456.25
2023-03-12T00:12:44.916Z,99407.56
2023-03-12T00:13:25.813Z,99435.06
2023-03-12T00:14:08.862Z,99456.72
2023-03-12T00:14:43.973Z,99437.13
2023-03-12T00:15:31.795Z,99454.16
2023-03-12T00:16:13.014Z,99441.44
2023-03-12T00:17:00.802Z,99424.31
2023-03-12T00:17:36.904Z,99448.81
2023-03-12T00:18:23.810Z,99442.97
2023-03-12T00:18:59.890Z,99407.75
2023-03-12T00:19:40.827Z,99420.44
2023-03-12T00:20:22.063Z,99429.06
2023-03-12T00:21:02.778Z,99438.75
2023-03-12T00:21:42.892Z,99426.19
2023-03-12T00:22:23.767Z,99400.63
2023-03-12T00:23:03.914Z,99440.44
2023-03-12T00:23:44.787Z,99451.50
2023-03-12T00:24:24.920Z,99401.47
2023-03-12T00:25:05.850Z,99396.53
2023-03-12T00:25:46.922Z,99423.06
2023-03-12T00:26:27.773Z,99427.56
2023-03-12T00:27:07.922Z,99449.59
2023-03-12T00:27:48.766Z,99457.84
2023-03-12T00:28:28.947Z,99436.25
2023-03-12T00:29:09.781Z,99410.41
2023-03-12T00:29:50.129Z,99454.22
2023-03-12T00:30:30.810Z,99455.66
2023-03-12T00:31:22.017Z,99442.53
2023-03-12T00:32:02.789Z,99438.47
2023-03-12T00:32:43.989Z,99441.13
2023-03-12T00:33:24.772Z,99403.97
2023-03-12T00:34:06.883Z,99396.72
2023-03-12T00:34:47.789Z,99434.19
2023-03-12T00:35:27.924Z,99413.28
2023-03-12T00:36:08.786Z,99443.31
2023-03-12T00:36:50.865Z,99399.09
2023-03-12T00:37:31.765Z,99428.41
2023-03-12T00:38:11.862Z,99412.25
2023-03-12T00:38:52.778Z,99419.19
2023-03-12T00:39:32.899Z,99428.09
2023-03-12T00:40:15.739Z,99413.47
2023-03-12T00:40:55.859Z,99411.25
2023-03-12T00:41:36.785Z,99409.09
2023-03-12T00:42:16.939Z,99419.81
2023-03-12T00:42:57.813Z,99415.28
2023-03-12T00:43:37.875Z,99383.53
2023-03-12T00:44:18.740Z,99414.41
2023-03-12T00:44:58.890Z,99419.75
2023-03-12T00:45:39.744Z,99425.63
2023-03-12T00:46:20.893Z,99425.91
2023-03-12T00:47:01.832Z,99405.00
2023-03-12T00:47:41.895Z,99424.69
2023-03-12T00:48:22.765Z,99409.66
2023-03-12T00:49:02.850Z,99416.34
2023-03-12T00:49:43.755Z,99421.06
2023-03-12T00:50:23.847Z,99389.22
2023-03-12T00:51:04.737Z,99376.50
2023-03-12T00:51:45.837Z,99389.31
2023-03-12T00:52:26.813Z,99388.75
2023-03-12T00:53:06.935Z,99394.91
2023-03-12T00:53:47.773Z,99381.13
2023-03-12T00:54:28.863Z,99379.06
2023-03-12T00:55:09.764Z,99421.91
2023-03-12T00:56:03.722Z,99393.69
2023-03-12T00:56:57.732Z,99418.50
2023-03-12T00:57:44.744Z,99427.91
2023-03-12T00:58:18.900Z,99408.75
2023-03-12T00:59:05.788Z,99414.38
2023-03-12T00:59:40.515Z,99435.34
2023-03-12T01:00:28.828Z,99414.13
2023-03-12T01:01:02.880Z,99421.31
2023-03-12T01:01:49.737Z,99389.28
2023-03-12T01:02:23.935Z,99432.47
2023-03-12T01:03:04.790Z,99432.25
2023-03-12T01:03:44.955Z,99426.78
2023-03-12T01:04:25.788Z,99425.81
2023-03-12T01:05:05.856Z,99435.28
2023-03-12T01:05:47.776Z,99401.84
2023-03-12T01:06:27.945Z,99394.00
2023-03-12T01:07:08.763Z,99403.84
2023-03-12T01:07:49.831Z,99435.09
2023-03-12T01:08:30.783Z,99444.13
2023-03-12T01:09:13.836Z,99424.81
2023-03-12T01:09:54.735Z,99403.16
2023-03-12T01:10:34.869Z,99422.00
2023-03-12T01:11:18.722Z,99430.34
2023-03-12T01:11:59.198Z,99425.50
2023-03-12T01:12:39.706Z,99405.63
2023-03-12T01:13:19.884Z,99418.97
2023-03-12T01:14:01.766Z,99427.16
2023-03-12T01:14:41.864Z,99426.03
2023-03-12T01:15:24.713Z,99393.19
2023-03-12T01:16:04.843Z,99437.25
2023-03-12T01:16:45.836Z,99411.94
2023-03-12T01:17:26.820Z,99421.91
2023-03-12T01:18:07.743Z,99428.47
2023-03-12T01:18:48.829Z,99429.28
2023-03-12T01:19:29.728Z,99400.19
2023-03-12T01:20:10.831Z,99437.31
2023-03-12T01:20:51.747Z,99441.09
2023-03-12T01:21:32.810Z,99406.41
2023-03-12T01:22:13.737Z,99427.91
2023-03-12T01:22:53.792Z,99409.44
2023-03-12T01:23:34.718Z,99412.25
2023-03-12T01:24:15.896Z,99410.66
2023-03-12T01:24:56.737Z,99435.97
2023-03-12T01:25:36.949Z,99394.22
2023-03-12T01:26:17.736Z,99415.28
2023-03-12T01:26:58.418Z,99387.09
2023-03-12T01:27:39.725Z,99426.56
2023-03-12T01:28:19.820Z,99422.19
2023-03-12T01:29:00.715Z,99442.59
2023-03-12T01:29:40.882Z,99418.97
2023-03-12T01:30:21.706Z,99423.31
2023-03-12T01:31:01.854Z,99435.28
2023-03-12T01:31:42.747Z,99414.13
2023-03-12T01:32:22.839Z,99415.06
2023-03-12T01:33:03.705Z,99427.03
2023-03-12T01:33:43.843Z,99408.69
2023-03-12T01:34:24.704Z,99383.97
2023-03-12T01:35:05.800Z,99388.91
2023-03-12T01:35:47.787Z,99390.72
2023-03-12T01:36:35.861Z,99410.13
2023-03-12T01:37:16.713Z,99421.25
2023-03-12T01:37:56.826Z,99413.78
2023-03-12T01:38:37.707Z,99400.31
2023-03-12T01:39:18.797Z,99432.75
2023-03-12T01:39:59.680Z,99414.00
2023-03-12T01:40:41.797Z,99425.19
2023-03-12T01:41:22.700Z,99386.34
2023-03-12T01:42:02.839Z,99434.13
2023-03-12T01:42:43.679Z,99386.31
2023-03-12T01:43:40.807Z,99424.72
2023-03-12T01:44:21.696Z,99405.34
2023-03-12T01:45:07.826Z,99400.56
2023-03-12T01:46:11.797Z,99399.66
2023-03-12T01:46:52.734Z,99383.97
2023-03-12T01:47:26.840Z,99392.81
2023-03-12T01:48:13.666Z,99383.88
2023-03-12T01:48:52.852Z,99412.63
2023-03-12T01:49:41.703Z,99407.75
2023-03-12T01:50:15.834Z,99407.75
2023-03-12T01:51:02.704Z,99410.41
2023-03-12T01:52:03.736Z,99401.09
2023-03-12T01:52:57.669Z,99402.75
2023-03-12T01:53:52.682Z,99411.50
2023-03-12T01:55:14.653Z,99414.88
2023-03-12T01:56:08.652Z,99414.66
2023-03-12T01:57:03.705Z,99419.81
2023-03-12T01:58:05.652Z,99389.44
2023-03-12T01:59:06.677Z,99420.84
2023-03-12T02:00:07.655Z,99369.59
2023-03-12T02:01:01.689Z,99385.09
2023-03-12T02:01:56.682Z,99428.84
2023-03-12T02:02:37.679Z,99402.69
2023-03-12T02:03:17.774Z,99390.63
2023-03-12T02:04:00.774Z,99388.44
2023-03-12T02:04:41.769Z,99403.16
2023-03-12T02:05:27.660Z,99404.75
2023-03-12T02:06:19.776Z,99390.56
2023-03-12T02:07:14.632Z,99406.94
2023-03-12T02:07:55.713Z,99419.72
2023-03-12T02:08:30.741Z,99387.34
2023-03-12T02:09:19.646Z,99389.66
2023-03-12T02:09:55.838Z,99410.56
2023-03-12T02:10:43.677Z,99402.47
2023-03-12T02:11:17.750Z,99429.59
2023-03-12T02:12:04.663Z,99434.97
2023-03-12T02:12:39.059Z,99435.13
2023-03-12T02:13:19.679Z,99440.19
2023-03-12T02:13:59.768Z,99415.81
2023-03-12T02:14:40.622Z,99426.88
2023-03-12T02:15:20.741Z,99439.06
2023-03-12T02:16:01.653Z,99443.63
2023-03-12T02:16:41.807Z,99444.16
2023-03-12T02:17:22.660Z,99435.59
2023-03-12T02:18:02.995Z,99442.75
2023-03-12T02:18:43.697Z,99405.28
2023-03-12T02:20:11.039Z,99398.38
2023-03-12T02:21:32.669Z,99459.66
2023-03-12T02:22:12.754Z,99465.34
2023-03-12T02:23:17.656Z,99452.72
2023-03-12T02:24:14.654Z,99447.34
2023-03-12T02:25:17.753Z,99442.19
2023-03-12T02:26:05.635Z,99433.47
2023-03-12T02:26:41.784Z,99431.13
2023-03-12T02:27:29.614Z,99457.69
2023-03-12T02:28:06.746Z,99451.25
2023-03-12T02:28:55.637Z,99455.13
2023-03-12T02:29:36.675Z,99434.53
2023-03-12T02:30:31.662Z,99434.91
2023-03-12T02:31:34.661Z,99446.06
2023-03-12T02:32:38.731Z,99451.38
2023-03-12T02:33:32.645Z,99439.69
2023-03-12T02:34:26.631Z,99452.84
2023-03-12T02:35:07.659Z,99430.81
2023-03-12T02:35:48.885Z,99461.28
2023-03-12T02:36:29.644Z,99424.97
2023-03-12T02:37:10.757Z,99433.31
2023-03-12T02:37:57.653Z,99453.31
2023-03-12T02:38:51.790Z,99419.66
2023-03-12T02:39:32.619Z,99430.81
2023-03-12T02:40:29.643Z,99469.63
2023-03-12T02:42:14.620Z,99450.88
2023-03-12T02:43:09.658Z,99458.00
2023-03-12T02:44:21.629Z,99436.94
2023-03-12T02:45:17.647Z,99420.41
2023-03-12T02:45:58.679Z,99468.63
2023-03-12T02:46:46.787Z,99450.59
2023-03-12T02:47:27.620Z,99467.91
2023-03-12T02:48:10.728Z,99477.63
2023-03-12T02:48:51.638Z,99464.81
2023-03-12T02:49:37.729Z,99489.09
2023-03-12T02:50:18.626Z,99486.28
2023-03-12T02:51:05.662Z,99456.41
2023-03-12T02:52:00.613Z,99427.44
2023-03-12T02:52:54.620Z,99482.13
2023-03-12T02:53:48.631Z,99454.66
2023-03-12T02:54:43.617Z,99464.44
2023-03-12T02:55:37.659Z,99470.88
2023-03-12T02:56:24.643Z,99465.78
2023-03-12T02:56:58.757Z,99458.53
2023-03-12T02:57:46.627Z,99451.03
2023-03-12T02:58:20.723Z,99435.59
2023-03-12T02:59:08.614Z,99463.16
2023-03-12T02:59:42.722Z,99470.97
2023-03-12T03:00:29.588Z,99440.09
2023-03-12T03:01:03.746Z,99472.94
2023-03-12T03:01:44.695Z,99435.44
2023-03-12T03:02:47.467Z,99466.66
2023-03-12T03:03:35.643Z,99472.47
2023-03-12T03:04:11.765Z,99420.19
2023-03-12T03:04:58.594Z,99448.63
2023-03-12T03:05:33.445Z,99467.66
2023-03-12T03:06:20.621Z,99431.38
2023-03-12T03:07:00.619Z,99443.69
2023-03-12T03:07:40.680Z,99480.34
2023-03-12T03:08:20.626Z,99490.66
2023-03-12T03:09:00.724Z,99472.56
2023-03-12T03:09:41.592Z,99471.09
2023-03-12T03:10:22.722Z,99469.56
2023-03-12T03:11:02.596Z,99484.81
2023-03-12T03:11:43.780Z,99447.66
2023-03-12T03:12:23.671Z,99486.88
2023-03-12T03:13:03.706Z,99436.66
2023-03-12T03:13:45.590Z,99443.53
2023-03-12T03:14:26.749Z,99471.72
2023-03-12T03:15:06.611Z,99443.53
2023-03-12T03:15:46.810Z,99465.25
2023-03-12T03:16:27.680Z,99456.69
2023-03-12T03:17:07.669Z,99459.38
2023-03-12T03:17:48.625Z,99445.19
2023-03-12T03:18:28.677Z,99432.72
2023-03-12T03:19:08.580Z,99437.72
2023-03-12T03:19:48.753Z,99487.44
2023-03-12T03:20:30.547Z,99468.22
2023-03-12T03:21:16.620Z,99481.38
2023-03-12T03:21:57.628Z,99454.81
2023-03-12T03:22:37.701Z,99456.34
2023-03-12T03:23:17.606Z,99462.03
2023-03-12T03:23:58.729Z,99492.28
2023-03-12T03:24:38.610Z,99475.03
2023-03-12T03:25:22.190Z,99492.25
2023-03-12T03:26:03.560Z,99481.28
2023-03-12T03:26:44.187Z,99465.25
2023-03-12T03:27:24.577Z,99446.72
2023-03-12T03:28:04.900Z,99472.59
2023-03-12T03:28:45.616Z,99479.63
2023-03-12T03:29:25.749Z,99460.44
2023-03-12T03:30:06.590Z,99481.03
2023-03-12T03:30:46.701Z,99487.53
2023-03-12T03:31:27.703Z,99454.03
2023-03-12T03:32:08.716Z,99460.81
2023-03-12T03:32:48.604Z,99498.16
2023-03-12T03:33:28.911Z,99486.66
2023-03-12T03:34:10.604Z,99441.97
2023-03-12T03:34:51.699Z,99455.91
2023-03-12T03:35:31.606Z,99505.69
2023-03-12T03:36:16.615Z,99503.34
2023-03-12T03:36:56.570Z,99488.31
2023-03-12T03:37:37.675Z,99503.28
2023-03-12T03:38:17.548Z,99447.09
2023-03-12T03:38:57.760Z,99450.59
2023-03-12T03:39:37.595Z,99511.63
2023-03-12T03:40:19.228Z,99499.19
2023-03-12T03:41:00.579Z,99480.69
2023-03-12T03:41:41.659Z,99458.09
2023-03-12T03:42:21.573Z,99492.34
2023-03-12T03:43:02.669Z,99483.84
2023-03-12T03:43:43.554Z,99472.28
2023-03-12T03:44:24.729Z,99459.13
2023-03-12T03:45:04.591Z,99485.75
2023-03-12T03:45:45.687Z,99503.38
2023-03-12T03:46:25.609Z,99451.91
2023-03-12T03:47:05.672Z,99501.53
2023-03-12T03:47:46.600Z,99460.97
2023-03-12T03:48:26.639Z,99507.75
2023-03-12T03:49:06.541Z,99482.84
2023-03-12T03:49:47.665Z,99481.91
2023-03-12T03:50:27.585Z,99485.34
2023-03-12T03:51:12.628Z,99516.31
2023-03-12T03:51:53.554Z,99506.78
2023-03-12T03:52:33.654Z,99490.00
2023-03-12T03:53:15.538Z,99476.19
2023-03-12T03:53:57.188Z,99477.13
2023-03-12T03:54:37.557Z,99487.50
2023-03-12T03:55:17.633Z,99470.63
2023-03-12T03:55:57.571Z,99504.56
2023-03-12T03:56:37.668Z,99510.53
2023-03-12T03:57:17.523Z,99493.25
2023-03-12T03:57:58.627Z,99480.91
2023-03-12T03:58:38.532Z,99511.81
2023-03-12T03:59:18.635Z,99506.94
2023-03-12T03:59:58.515Z,99485.72
2023-03-12T04:00:39.635Z,99507.78
2023-03-12T04:01:21.567Z,99498.81
2023-03-12T04:02:02.675Z,99475.16
2023-03-12T04:02:43.536Z,99491.38
2023-03-12T04:03:24.722Z,99505.47
2023-03-12T04:04:05.568Z,99497.38
2023-03-12T04:04:45.632Z,99493.22
2023-03-12T04:05:27.567Z,99498.34
2023-03-12T04:06:10.631Z,99463.13
2023-03-12T04:06:50.579Z,99480.75
2023-03-12T04:07:52.524Z,99464.00
2023-03-12T04:08:47.537Z,99461.00
2023-03-12T04:09:41.555Z,99514.47
2023-03-12T04:10:37.538Z,99501.09
2023-03-12T04:11:34.556Z,99501.66
2023-03-12T04:12:15.524Z,99497.09
2023-03-12T04:12:56.638Z,99458.47
2023-03-12T04:13:37.522Z,99463.00
2023-03-12T04:14:17.668Z,99496.06
2023-03-12T04:14:59.534Z,99509.53
2023-03-12T04:15:39.702Z,99507.97
2023-03-12T04:16:21.608Z,99515.75
2023-03-12T04:17:01.642Z,99522.88
2023-03-12T04:17:42.663Z,99509.91
2023-03-12T04:18:23.624Z,99513.28
2023-03-12T04:19:04.512Z,99523.41
2023-03-12T04:19:44.635Z,99511.25
2023-03-12T04:20:25.526Z,99486.09
2023-03-12T04:21:05.691Z,99510.09
2023-03-12T04:21:46.539Z,99542.56
2023-03-12T04:22:40.522Z,99520.19
2023-03-12T04:23:20.522Z,99550.19
2023-03-12T04:24:00.576Z,99535.06
2023-03-12T04:24:41.484Z,99503.88
2023-03-12T04:25:21.606Z,99479.56
2023-03-12T04:26:02.479Z,99526.75
2023-03-12T04:26:42.616Z,99534.91
2023-03-12T04:27:23.585Z,99525.31
2023-03-12T04:28:03.531Z,99525.31
2023-03-12T04:28:37.613Z,99519.84
2023-03-12T04:29:26.489Z,99503.88
2023-03-12T04:30:00.648Z,99542.78
2023-03-12T04:30:47.498Z,99506.06
2023-03-12T04:31:21.632Z,99520.19
2023-03-12T04:32:08.467Z,99524.91
2023-03-12T04:32:42.654Z,99515.00
2023-03-12T04:33:23.610Z,99522.69
2023-03-12T04:34:04.606Z,99542.66
2023-03-12T04:34:45.525Z,99517.53
2023-03-12T04:35:25.607Z,99525.72
2023-03-12T04:36:06.540Z,99494.91
2023-03-12T04:36:46.887Z,99507.28
2023-03-12T04:37:27.514Z,99530.34
2023-03-12T04:38:08.679Z,99527.69
2023-03-12T04:38:49.512Z,99519.25
2023-03-12T04:39:29.648Z,99521.78
2023-03-12T04:40:14.516Z,99527.94
2023-03-12T04:41:03.628Z,99553.91
2023-03-12T04:41:45.526Z,99515.00
2023-03-12T04:42:25.647Z,99488.63
2023-03-12T04:43:05.558Z,99499.63
2023-03-12T04:43:45.657Z,99495.66
2023-03-12T04:44:26.519Z,99540.16
2023-03-12T04:45:06.595Z,99519.38
2023-03-12T04:45:49.471Z,99504.69
2023-03-12T04:46:29.635Z,99509.91
2023-03-12T04:47:10.490Z,99505.06
2023-03-12T04:47:50.602Z,99530.25
2023-03-12T04:48:31.513Z,99551.75
2023-03-12T04:49:12.609Z,99550.91
2023-03-12T04:49:53.518Z,99539.38
2023-03-12T04:50:33.625Z,99513.28
2023-03-12T04:51:14.479Z,99551.22
2023-03-12T04:51:54.591Z,99543.59
2023-03-12T04:52:35.498Z,99496.28
2023-03-12T04:53:15.642Z,99506.75
2023-03-12T04:53:56.480Z,99535.03
2023-03-12T04:54:37.446Z,99540.59
2023-03-12T04:55:18.499Z,99505.78
2023-03-12T04:55:59.798Z,99544.56
2023-03-12T04:56:40.468Z,99540.72
2023-03-12T04:57:20.579Z,99552.09
2023-03-12T04:58:01.480Z,99507.66
2023-03-12T04:58:42.672Z,99565.06
2023-03-12T04:59:23.491Z,99511.16
2023-03-12T05:00:05.371Z,99529.41
2023-03-12T05:00:47.508Z,99555.56
2023-03-12T05:01:40.589Z,99546.91
2023-03-12T05:02:21.495Z,99520.50
2023-03-12T05:03:01.650Z,99531.25
2023-03-12T05:03:42.482Z,99536.41
2023-03-12T05:04:22.565Z,99560.81
2023-03-12T05:05:04.453Z,99518.88
2023-03-12T05:05:44.675Z,99529.34
2023-03-12T05:06:25.524Z,99501.31
2023-03-12T05:07:05.566Z,99543.56
2023-03-12T05:07:46.499Z,99558.47
2023-03-12T05:08:26.627Z,99530.63
2023-03-12T05:09:07.472Z,99562.16
2023-03-12T05:09:47.691Z,99563.50
2023-03-12T05:10:28.519Z,99524.44
2023-03-12T05:11:08.650Z,99558.19
2023-03-12T05:11:49.468Z,99519.97
2023-03-12T05:12:29.607Z,99554.19
2023-03-12T05:13:10.505Z,99566.97
2023-03-12T05:13:50.617Z,99547.09
2023-03-12T05:14:31.476Z,99519.31
2023-03-12T05:15:25.457Z,99533.00
2023-03-12T05:16:20.521Z,99551.34
2023-03-12T05:17:07.479Z,99567.97
2023-03-12T05:17:41.630Z,99517.91
2023-03-12T05:18:28.447Z,99523.72
2023-03-12T05:19:02.567Z,99562.69
2023-03-12T05:19:49.458Z,99541.19
2023-03-12T05:20:23.552Z,99555.84
2023-03-12T05:21:19.494Z,99579.81
2023-03-12T05:21:53.586Z,99561.63
2023-03-12T05:22:34.503Z,99521.38
2023-03-12T05:23:14.568Z,99529.16
2023-03-12T05:23:55.433Z,99556.34
2023-03-12T05:24:35.562Z,99569.97
2023-03-12T05:25:16.494Z,99575.03
2023-03-12T05:25:56.691Z,99585.75
2023-03-12T05:26:39.469Z,99556.00
2023-03-12T05:27:20.142Z,99578.13
2023-03-12T05:28:02.480Z,99577.09
2023-03-12T05:28:42.554Z,99563.91
2023-03-12T05:29:23.466Z,99566.63
2023-03-12T05:30:04.609Z,99569.38
2023-03-12T05:30:46.461Z,99555.84
2023-03-12T05:31:27.589Z,99591.00
2023-03-12T05:32:10.453Z,99540.59
2023-03-12T05:32:50.642Z,99578.47
2023-03-12T05:33:32.449Z,99598.38
2023-03-12T05:34:12.610Z,99583.97
2023-03-12T05:34:53.433Z,99596.22
2023-03-12T05:35:33.567Z,99596.81
2023-03-12T05:36:14.523Z,99598.72
2023-03-12T05:36:54.629Z,99586.28
2023-03-12T05:37:34.440Z,99565.03
2023-03-12T05:38:14.582Z,99545.91
2023-03-12T05:38:55.490Z,99556.69
2023-03-12T05:39:35.549Z,99592.63
2023-03-12T05:40:19.445Z,99556.34
2023-03-12T05:41:02.541Z,99563.06
2023-03-12T05:41:43.426Z,99544.75
2023-03-12T05:42:23.594Z,99539.38
2023-03-12T05:43:04.428Z,99544.19
2023-03-12T05:43:44.566Z,99593.91
2023-03-12T05:44:25.478Z,99566.28
2023-03-12T05:45:05.555Z,99560.66
2023-03-12T05:45:46.490Z,99558.06
2023-03-12T05:46:26.578Z,99580.88
2023-03-12T05:47:07.441Z,99587.13
2023-03-12T05:47:47.593Z,99575.22
2023-03-12T05:48:29.443Z,99589.44
2023-03-12T05:49:10.565Z,99583.44
2023-03-12T05:49:51.428Z,99595.53
2023-03-12T05:50:32.530Z,99558.94
2023-03-12T05:51:13.448Z,99567.78
2023-03-12T05:51:55.577Z,99594.88
2023-03-12T05:52:36.472Z,99616.81
2023-03-12T05:53:17.549Z,99581.31
2023-03-12T05:53:58.430Z,99610.38
2023-03-12T05:54:38.551Z,99609.88
2023-03-12T05:55:19.428Z,99631.31
2023-03-12T05:55:59.530Z,99606.06
2023-03-12T05:56:40.412Z,99602.34
2023-03-12T05:57:20.551Z,99625.47
2023-03-12T05:58:01.449Z,99578.41
2023-03-12T05:58:42.573Z,99603.34
2023-03-12T05:59:23.448Z,99598.53
2023-03-12T06:00:03.583Z,99567.53
2023-03-12T06:00:44.499Z,99581.06
2023-03-12T06:01:28.579Z,99594.84
2023-03-12T06:02:09.507Z,99641.78
2023-03-12T06:02:50.520Z,99609.78
2023-03-12T06:03:31.547Z,99588.25
2023-03-12T06:04:12.532Z,99614.16
2023-03-12T06:04:53.436Z,99622.38
2023-03-12T06:05:33.514Z,99586.69
2023-03-12T06:06:14.453Z,99593.06
2023-03-12T06:06:54.516Z,99610.28
2023-03-12T06:07:35.393Z,99621.88
2023-03-12T06:08:15.518Z,99607.81
2023-03-12T06:08:57.383Z,99631.41
2023-03-12T06:09:37.534Z,99600.28
2023-03-12T06:10:18.415Z,99608.56
2023-03-12T06:11:00.561Z,99617.84
2023-03-12T06:11:41.427Z,99644.59
2023-03-12T06:12:21.518Z,99613.66
2023-03-12T06:13:02.398Z,99629.09
2023-03-12T06:13:42.512Z,99671.03
2023-03-12T06:14:23.408Z,99663.06
2023-03-12T06:15:18.360Z,99656.63
2023-03-12T06:16:21.414Z,99602.16
2023-03-12T06:17:02.376Z,99615.25
2023-03-12T06:17:42.526Z,99609.84
2023-03-12T06:18:23.377Z,99654.81
2023-03-12T06:19:07.701Z,99638.44
2023-03-12T06:19:48.400Z,99665.97
2023-03-12T06:20:29.496Z,99626.50
2023-03-12T06:21:22.402Z,99635.75
2023-03-12T06:22:09.426Z,99655.22
2023-03-12T06:23:03.362Z,99659.78
2023-03-12T06:23:58.432Z,99627.19
2023-03-12T06:24:54.392Z,99680.38
2023-03-12T06:25:48.391Z,99639.91
2023-03-12T06:26:42.384Z,99652.56
2023-03-12T06:27:29.448Z,99637.16
2023-03-12T06:28:03.530Z,99657.63
2023-03-12T06:28:53.392Z,99662.34
2023-03-12T06:29:27.512Z,99671.53
2023-03-12T06:30:15.380Z,99641.06
2023-03-12T06:30:49.553Z,99648.66
2023-03-12T06:31:38.768Z,99644.00
2023-03-12T06:32:13.503Z,99683.28
2023-03-12T06:32:54.467Z,99657.13
2023-03-12T06:33:34.472Z,99690.94
2023-03-12T06:34:16.379Z,99652.50
2023-03-12T06:34:57.491Z,99693.00
2023-03-12T06:35:38.468Z,99676.25
2023-03-12T06:36:19.470Z,99684.00
2023-03-12T06:37:00.404Z,99678.84
2023-03-12T06:37:40.477Z,99679.38
2023-03-12T06:38:21.404Z,99689.97
2023-03-12T06:39:06.118Z,99680.53
2023-03-12T06:39:47.381Z,99678.81
2023-03-12T06:40:27.475Z,99684.94
2023-03-12T06:41:11.369Z,99699.00
2023-03-12T06:41:51.491Z,99709.56
2023-03-12T06:42:33.388Z,99669.38
2023-03-12T06:43:14.510Z,99698.06
2023-03-12T06:43:55.389Z,99693.78
2023-03-12T06:44:37.509Z,99689.31
2023-03-12T06:45:18.372Z,99704.31
2023-03-12T06:46:02.485Z,99715.56
2023-03-12T06:46:43.436Z,99668.63
2023-03-12T06:47:23.479Z,99707.84
2023-03-12T06:48:04.389Z,99704.59
2023-03-12T06:48:46.174Z,99691.38
2023-03-12T06:49:27.417Z,99712.16
2023-03-12T06:50:07.593Z,99668.88
2023-03-12T06:50:48.372Z,99687.59
2023-03-12T06:51:28.443Z,99721.50
2023-03-12T06:52:09.374Z,99719.44
2023-03-12T06:53:03.337Z,99711.97
2023-03-12T06:53:59.347Z,99671.28
2023-03-12T06:54:46.366Z,99701.81
2023-03-12T06:55:21.461Z,99715.03
2023-03-12T06:56:10.362Z,99727.41
2023-03-12T06:56:46.083Z,99715.38
2023-03-12T06:57:33.362Z,99705.84
2023-03-12T06:58:07.511Z,99685.00
2023-03-12T06:58:55.364Z,99683.03
2023-03-12T06:59:29.558Z,99723.72
2023-03-12T07:00:11.405Z,99713.41
2023-03-12T07:00:52.519Z,99719.50
2023-03-12T07:01:33.406Z,99680.88
2023-03-12T07:02:44.074Z,99713.31
2023-03-12T07:03:34.369Z,99713.66
2023-03-12T07:04:09.233Z,99700.19
2023-03-12T07:04:57.433Z,99689.41
2023-03-12T07:05:38.398Z,99674.38
2023-03-12T07:06:24.565Z,99692.22
2023-03-12T07:07:05.355Z,99742.53
2023-03-12T07:07:45.446Z,99692.31
2023-03-12T07:08:26.352Z,99706.81
2023-03-12T07:09:07.831Z,99720.88
2023-03-12T07:09:48.352Z,99677.66
2023-03-12T07:10:29.685Z,99735.41
2023-03-12T07:11:11.404Z,99735.66
2023-03-12T07:11:51.523Z,99721.16
2023-03-12T07:12:31.342Z,99717.94
2023-03-12T07:13:12.484Z,99698.25
2023-03-12T07:13:53.351Z,99672.84
2023-03-12T07:14:34.441Z,99729.13
2023-03-12T07:15:22.345Z,99711.97
2023-03-12T07:15:57.492Z,99724.16
2023-03-12T07:16:38.367Z,99743.03
2023-03-12T07:17:18.458Z,99736.84
2023-03-12T07:17:59.388Z,99718.84
2023-03-12T07:18:40.436Z,99757.78
2023-03-12T07:19:21.352Z,99729.28
2023-03-12T07:20:01.430Z,99717.53
2023-03-12T07:20:47.373Z,99712.97
2023-03-12T07:21:28.449Z,99737.19
2023-03-12T07:22:09.376Z,99721.91
2023-03-12T07:22:50.285Z,99716.06
2023-03-12T07:23:31.398Z,99692.06
2023-03-12T07:24:13.512Z,99717.78
2023-03-12T07:24:54.333Z,99722.44
2023-03-12T07:25:35.472Z,99720.34
2023-03-12T07:26:16.318Z,99725.88
2023-03-12T07:26:58.491Z,99752.63
2023-03-12T07:27:39.383Z,99729.63
2023-03-12T07:28:20.434Z,99737.13
2023-03-12T07:29:01.318Z,99733.66
2023-03-12T07:29:41.451Z,99753.69
2023-03-12T07:30:22.345Z,99733.16
2023-03-12T07:31:09.474Z,99733.00
2023-03-12T07:31:50.368Z,99732.75
2023-03-12T07:32:33.642Z,99733.06
2023-03-12T07:33:19.430Z,99741.50
2023-03-12T07:34:02.908Z,99719.50
2023-03-12T07:34:44.371Z,99706.38
2023-03-12T07:35:24.581Z,99701.66
2023-03-12T07:36:05.393Z,99716.75
2023-03-12T07:36:45.638Z,99701.13
2023-03-12T07:37:26.335Z,99701.63
2023-03-12T07:38:08.481Z,99687.47
2023-03-12T07:38:49.328Z,99690.97
2023-03-12T07:39:29.508Z,99699.41
2023-03-12T07:40:13.340Z,99705.66
2023-03-12T07:40:58.535Z,99723.97
2023-03-12T07:41:39.315Z,99712.47
2023-03-12T07:42:20.634Z,99717.34
2023-03-12T07:43:01.311Z,99721.84
2023-03-12T07:43:41.512Z,99729.19
2023-03-12T07:44:22.344Z,99708.41
2023-03-12T07:45:04.116Z,99703.69
2023-03-12T07:45:46.339Z,99717.16
2023-03-12T07:46:26.504Z,99749.03
2023-03-12T07:47:22.562Z,99718.88
2023-03-12T07:48:04.435Z,99737.66
2023-03-12T07:48:47.470Z,99718.28
2023-03-12T07:49:38.379Z,99756.66
2023-03-12T07:50:34.343Z,99722.41
2023-03-12T07:51:28.500Z,99715.53
2023-03-12T07:52:24.302Z,99748.94
2023-03-12T07:53:20.287Z,99752.94
2023-03-12T07:54:14.256Z,99761.13
2023-03-12T07:54:55.342Z,99746.31
2023-03-12T07:55:35.463Z,99736.41
2023-03-12T07:56:15.411Z,99747.03
2023-03-12T07:56:56.700Z,99752.28
2023-03-12T07:57:37.350Z,99754.50
2023-03-12T07:58:18.502Z,99726.28
2023-03-12T07:58:59.422Z,99742.16
2023-03-12T07:59:40.419Z,99709.88
2023-03-12T08:00:22.360Z,99754.69
2023-03-12T08:01:03.469Z,99748.44
2023-03-12T08:01:45.907Z,99751.50
2023-03-12T08:02:26.518Z,99757.53
2023-03-12T08:03:07.464Z,99716.94
2023-03-12T08:03:48.722Z,99749.38
2023-03-12T08:04:30.480Z,99746.28
2023-03-12T08:05:12.483Z,99738.22
2023-03-12T08:06:01.396Z,99724.31
2023-03-12T08:06:42.888Z,99756.75
2023-03-12T08:07:24.294Z,99734.00
2023-03-12T08:08:06.475Z,99743.34
2023-03-12T08:08:49.382Z,99756.00
2023-03-12T08:09:29.577Z,99731.00
2023-03-12T08:10:13.428Z,99753.31
2023-03-12T08:10:53.546Z,99758.13
2023-03-12T08:11:35.320Z,99772.53
2023-03-12T08:12:17.518Z,99727.72
2023-03-12T08:12:59.316Z,99743.97
2023-03-12T08:13:39.480Z,99739.94
2023-03-12T08:14:20.323Z,99741.25
2023-03-12T08:15:00.388Z,99749.22
2023-03-12T08:15:41.370Z,99784.75
2023-03-12T08:16:22.423Z,99751.00
2023-03-12T08:17:05.333Z,99767.88
2023-03-12T08:17:46.663Z,99755.72
2023-03-12T08:18:27.261Z,99747.97
2023-03-12T08:19:07.426Z,99770.78
2023-03-12T08:19:49.272Z,99757.47
2023-03-12T08:20:29.405Z,99775.16
2023-03-12T08:21:10.287Z,99755.22
2023-03-12T08:21:51.066Z,99742.13
2023-03-12T08:22:32.283Z,99738.72
2023-03-12T08:23:15.614Z,99774.47